Time;durP1;ratioP1;P1;durP2;ratioP2;P2;SDS_P1;SDS_P2;PMS_P1;PMS_P2;Temp;Humidity;BMP_temperature;BMP_pressure;BME280_temperature;BME280_humidity;BME280_pressure;Samples;Min_cycle;Max_cycle;Signal;HPM_P1;HPM_P2
2023/12/15 00:01:42;;;;;;;33.53;18.33;;;;;;;5.11;100.00;102088.16;5033414;28;20504;-78
2023/12/15 00:04:10;;;;;;;32.72;19.55;;;;;;;5.12;100.00;102084.66;5033665;28;20053;-79
2023/12/15 00:06:37;;;;;;;32.90;19.08;;;;;;;5.07;100.00;102099.63;5033215;28;20132;-79
2023/12/15 00:09:04;;;;;;;35.17;19.98;;;;;;;5.02;100.00;102094.69;5033622;28;20480;-79
2023/12/15 00:11:30;;;;;;;36.67;19.10;;;;;;;5.13;100.00;102101.91;5035966;28;20064;-80
2023/12/15 00:13:57;;;;;;;33.95;20.00;;;;;;;5.06;100.00;102100.56;5035669;28;20466;-80
2023/12/15 00:16:24;;;;;;;38.95;20.67;;;;;;;5.07;100.00;102097.03;5035062;28;20128;-79
2023/12/15 00:18:50;;;;;;;38.47;19.80;;;;;;;5.15;100.00;102092.28;5034909;28;20478;-80
2023/12/15 00:21:18;;;;;;;35.80;20.20;;;;;;;5.13;100.00;102091.53;5035096;28;20057;-80
2023/12/15 00:23:45;;;;;;;34.72;19.83;;;;;;;5.21;100.00;102099.69;5030116;28;20516;-80
2023/12/15 00:26:11;;;;;;;37.97;20.05;;;;;;;5.09;100.00;102090.84;5036805;28;20575;-80
2023/12/15 00:28:38;;;;;;;36.50;19.27;;;;;;;5.08;100.00;102093.53;5037693;28;20046;-80
2023/12/15 00:31:05;;;;;;;36.40;20.83;;;;;;;5.13;100.00;102094.13;5036616;28;20136;-80
2023/12/15 00:33:32;;;;;;;37.75;19.92;;;;;;;5.11;100.00;102101.16;5037135;28;20132;-80
2023/12/15 00:35:59;;;;;;;38.97;20.52;;;;;;;5.16;100.00;102101.72;5036195;28;20073;-80
2023/12/15 00:38:27;;;;;;;34.80;20.33;;;;;;;5.20;100.00;102105.84;5035667;28;20053;-80
2023/12/15 00:40:54;;;;;;;40.45;20.88;;;;;;;5.19;100.00;102107.59;5034825;28;20077;-81
2023/12/15 00:43:20;;;;;;;37.42;20.77;;;;;;;5.25;100.00;102101.19;5033967;28;20077;-79
2023/12/15 00:45:47;;;;;;;36.08;20.58;;;;;;;5.31;100.00;102108.63;5034762;28;20491;-80
2023/12/15 00:48:14;;;;;;;35.03;20.38;;;;;;;5.31;100.00;102108.63;5034832;28;20080;-80
2023/12/15 00:50:40;;;;;;;41.25;21.08;;;;;;;5.36;100.00;102116.16;5034923;28;20057;-80
2023/12/15 00:53:07;;;;;;;39.42;20.83;;;;;;;5.46;100.00;102123.34;5034462;28;20132;-80
2023/12/15 00:55:35;;;;;;;37.33;19.58;;;;;;;5.34;100.00;102129.22;5034919;28;20087;-80
2023/12/15 00:58:01;;;;;;;34.95;20.52;;;;;;;5.49;100.00;102130.97;5034962;28;20214;-79
2023/12/15 01:00:28;;;;;;;37.20;20.92;;;;;;;5.41;100.00;102127.13;5036203;28;20479;-80
2023/12/15 01:02:54;;;;;;;36.47;20.35;;;;;;;5.33;100.00;102143.97;5035737;28;20081;-80
2023/12/15 01:05:21;;;;;;;36.63;19.70;;;;;;;5.40;100.00;102147.06;5034680;28;20124;-79
2023/12/15 01:07:47;;;;;;;35.35;19.33;;;;;;;5.35;100.00;102149.06;5033533;28;20088;-79
2023/12/15 01:10:14;;;;;;;43.83;20.52;;;;;;;5.54;100.00;102154.91;5031277;28;20084;-78
2023/12/15 01:12:42;;;;;;;33.67;19.25;;;;;;;5.62;100.00;102152.75;5030243;28;20503;-78
2023/12/15 01:15:09;;;;;;;35.30;20.40;;;;;;;5.63;100.00;102154.41;5030848;28;20084;-78
2023/12/15 01:17:36;;;;;;;38.00;19.58;;;;;;;5.80;100.00;102158.63;5030324;28;20087;-78
2023/12/15 01:20:02;;;;;;;33.97;19.85;;;;;;;5.72;100.00;102153.03;5030544;28;20148;-79
2023/12/15 01:22:29;;;;;;;33.65;19.88;;;;;;;5.74;100.00;102171.13;5032177;28;20136;-80
2023/12/15 01:24:56;;;;;;;35.20;19.67;;;;;;;5.69;100.00;102168.78;5034308;28;20128;-80
2023/12/15 01:27:23;;;;;;;32.50;19.50;;;;;;;5.75;100.00;102172.78;5034785;28;20072;-79
2023/12/15 01:29:51;;;;;;;35.38;19.58;;;;;;;5.77;100.00;102183.94;5035012;28;20136;-79
2023/12/15 01:32:17;;;;;;;33.47;19.75;;;;;;;5.76;100.00;102190.06;5033846;28;20112;-79
2023/12/15 01:34:44;;;;;;;36.65;20.45;;;;;;;5.81;100.00;102201.03;5032574;28;20057;-78
2023/12/15 01:37:10;;;;;;;31.45;19.45;;;;;;;5.79;100.00;102195.06;5033575;28;20125;-79
2023/12/15 01:39:37;;;;;;;34.60;20.30;;;;;;;5.80;100.00;102197.59;5035914;28;20076;-79
2023/12/15 01:42:04;;;;;;;32.70;20.42;;;;;;;5.85;100.00;102194.72;5035734;28;20089;-79
2023/12/15 01:44:31;;;;;;;36.65;19.60;;;;;;;5.86;100.00;102196.41;5035677;28;20128;-80
2023/12/15 01:46:59;;;;;;;34.38;20.02;;;;;;;5.94;100.00;102191.63;5035093;28;20136;-79
2023/12/15 01:49:27;;;;;;;38.90;21.05;;;;;;;5.88;100.00;102192.78;5035188;28;20049;-79
2023/12/15 01:51:53;;;;;;;39.08;21.58;;;;;;;5.99;100.00;102198.25;5034096;28;20056;-79
2023/12/15 01:54:20;;;;;;;31.15;20.15;;;;;;;6.03;100.00;102201.50;5035758;28;20156;-80
2023/12/15 01:56:47;;;;;;;33.20;20.50;;;;;;;6.07;100.00;102202.19;5029906;28;20452;-79
2023/12/15 01:59:13;;;;;;;36.95;19.48;;;;;;;6.09;100.00;102203.75;5038813;28;20073;-79
2023/12/15 02:01:40;;;;;;;32.80;20.83;;;;;;;6.06;100.00;102196.13;5037123;28;20451;-79
2023/12/15 02:04:08;;;;;;;33.53;20.27;;;;;;;6.07;100.00;102199.56;5038390;28;20076;-78
2023/12/15 02:06:35;;;;;;;34.42;19.73;;;;;;;5.90;100.00;102208.31;5039274;28;20164;-79
2023/12/15 02:09:01;;;;;;;35.10;20.60;;;;;;;5.83;100.00;102213.00;5038826;28;20084;-79
2023/12/15 02:11:28;;;;;;;41.53;20.92;;;;;;;5.66;100.00;102216.56;5039760;28;20124;-79
2023/12/15 02:13:54;;;;;;;40.67;21.77;;;;;;;5.66;100.00;102213.13;5037682;28;20079;-80
2023/12/15 02:16:21;;;;;;;36.65;20.48;;;;;;;5.70;100.00;102213.75;5037311;28;20052;-79
2023/12/15 02:18:47;;;;;;;36.65;20.13;;;;;;;5.69;100.00;102212.94;5038006;28;20054;-80
2023/12/15 02:21:15;;;;;;;41.25;21.02;;;;;;;5.73;100.00;102219.63;5039048;28;20081;-80
2023/12/15 02:23:43;;;;;;;37.45;21.63;;;;;;;5.68;100.00;102230.28;5039826;28;20137;-79
2023/12/15 02:26:10;;;;;;;43.08;21.48;;;;;;;5.83;100.00;102230.34;5038158;28;20049;-80
2023/12/15 02:28:36;;;;;;;38.35;20.80;;;;;;;6.06;100.00;102234.28;5036790;28;20105;-79
2023/12/15 02:31:03;;;;;;;36.85;20.67;;;;;;;6.19;100.00;102230.03;5037818;28;20110;-80
2023/12/15 02:33:30;;;;;;;36.42;21.42;;;;;;;6.18;100.00;102234.38;5037926;28;20132;-80
2023/12/15 02:35:57;;;;;;;39.30;21.08;;;;;;;6.02;100.00;102228.41;5037571;28;20132;-79
2023/12/15 02:38:23;;;;;;;49.42;22.33;;;;;;;5.92;100.00;102224.66;5037469;28;20535;-79
2023/12/15 02:40:51;;;;;;;36.80;22.50;;;;;;;5.88;100.00;102231.75;5038382;28;20199;-79
2023/12/15 02:43:18;;;;;;;41.25;23.33;;;;;;;5.90;100.00;102239.50;5037418;28;20132;-79
2023/12/15 02:45:44;;;;;;;41.97;22.48;;;;;;;5.97;100.00;102236.47;5037373;28;20475;-79
2023/12/15 02:48:11;;;;;;;39.10;22.95;;;;;;;6.12;100.00;102239.13;5036119;28;20073;-80
2023/12/15 02:50:37;;;;;;;41.83;22.80;;;;;;;6.06;100.00;102235.13;5036465;28;20089;-79
2023/12/15 02:53:04;;;;;;;45.00;23.35;;;;;;;6.00;100.00;102238.06;5036581;28;20140;-79
2023/12/15 02:55:31;;;;;;;41.30;24.27;;;;;;;5.98;100.00;102240.75;5036122;28;20084;-78
2023/12/15 02:57:58;;;;;;;44.45;23.95;;;;;;;5.96;100.00;102232.22;5034314;28;20215;-78
2023/12/15 03:00:25;;;;;;;41.17;22.77;;;;;;;5.94;100.00;102238.41;5033812;28;20062;-77
2023/12/15 03:02:52;;;;;;;48.60;25.55;;;;;;;5.85;100.00;102233.69;5034370;28;20132;-79
2023/12/15 03:05:18;;;;;;;41.20;24.30;;;;;;;5.84;100.00;102234.63;5033181;28;20549;-79
2023/12/15 03:07:45;;;;;;;47.85;25.48;;;;;;;6.00;100.00;102245.84;5033128;28;20065;-78
2023/12/15 03:10:11;;;;;;;46.88;25.15;;;;;;;6.07;100.00;102239.41;5035686;28;20128;-80
2023/12/15 03:12:38;;;;;;;45.33;25.15;;;;;;;6.09;100.00;102229.75;5036762;28;20064;-80
2023/12/15 03:15:08;;;;;;;42.70;25.50;;;;;;;6.09;100.00;102229.75;5036705;28;20144;-79
2023/12/15 03:17:34;;;;;;;47.78;24.80;;;;;;;6.08;100.00;102235.88;5035379;28;20132;-79
2023/12/15 03:20:01;;;;;;;48.58;25.13;;;;;;;6.15;100.00;102239.75;5036887;28;20140;-79
2023/12/15 03:22:28;;;;;;;47.90;25.88;;;;;;;6.14;100.00;102238.13;5036354;28;20051;-79
2023/12/15 03:24:55;;;;;;;48.03;25.20;;;;;;;6.16;100.00;102249.22;5034734;28;20455;-79
2023/12/15 03:27:21;;;;;;;48.42;25.38;;;;;;;6.24;100.00;102256.59;5034338;28;20495;-79
2023/12/15 03:29:48;;;;;;;42.80;24.58;;;;;;;6.24;100.00;102270.44;5035151;28;20129;-79
2023/12/15 03:32:16;;;;;;;44.40;24.25;;;;;;;6.27;100.00;102270.25;5034871;28;20061;-79
2023/12/15 03:34:42;;;;;;;44.47;24.60;;;;;;;6.24;100.00;102267.84;5034980;28;20111;-79
2023/12/15 03:37:09;;;;;;;42.80;23.33;;;;;;;6.32;100.00;102280.41;5034339;28;20180;-79
2023/12/15 03:39:36;;;;;;;45.20;24.67;;;;;;;6.34;100.00;102278.53;5034221;28;20049;-79
2023/12/15 03:44:42;;;;;;;49.83;24.08;;;;;;;6.29;100.00;102283.16;5039682;28;20053;-81
2023/12/15 03:47:09;;;;;;;49.65;24.92;;;;;;;6.31;100.00;102286.53;5035877;28;20120;-80
2023/12/15 03:49:37;;;;;;;43.72;24.20;;;;;;;6.38;100.00;102292.22;5036325;28;20562;-83
2023/12/15 03:52:04;;;;;;;39.20;22.30;;;;;;;6.30;100.00;102290.88;5037014;28;20055;-82
2023/12/15 03:54:31;;;;;;;43.60;23.15;;;;;;;6.31;100.00;102291.72;5046629;28;20122;-81
2023/12/15 03:56:58;;;;;;;38.53;22.35;;;;;;;6.29;100.00;102289.22;5040713;28;20561;-78
2023/12/15 03:59:25;;;;;;;42.22;24.15;;;;;;;6.32;100.00;102299.44;5050996;28;20486;-80
2023/12/15 04:01:52;;;;;;;43.10;23.20;;;;;;;6.36;100.00;102312.25;5039257;28;20108;-82
2023/12/15 04:04:19;;;;;;;41.55;22.50;;;;;;;6.37;100.00;102308.72;5035777;28;20121;-81
2023/12/15 04:06:47;;;;;;;40.03;22.63;;;;;;;6.19;100.00;102306.25;5036188;28;20133;-79
2023/12/15 04:09:13;;;;;;;40.13;23.02;;;;;;;6.19;100.00;102313.22;5036565;28;20049;-80
2023/12/15 04:11:40;;;;;;;39.42;22.02;;;;;;;6.06;100.00;102313.09;5036022;28;20143;-82
2023/12/15 04:14:08;;;;;;;37.78;21.90;;;;;;;6.20;100.00;102320.91;5035148;28;20085;-81
2023/12/15 04:16:35;;;;;;;40.88;22.50;;;;;;;6.32;100.00;102333.22;5035249;28;20245;-80
2023/12/15 04:19:02;;;;;;;37.75;22.35;;;;;;;6.39;100.00;102338.09;5035871;28;20152;-84
2023/12/15 04:21:28;;;;;;;41.88;22.45;;;;;;;6.28;100.00;102336.94;5036390;28;20046;-81
2023/12/15 04:23:56;;;;;;;36.88;22.40;;;;;;;6.38;100.00;102342.44;5041562;28;20536;-81
2023/12/15 04:26:23;;;;;;;40.63;24.30;;;;;;;6.49;100.00;102341.84;5038461;28;20143;-80
2023/12/15 04:28:53;;;;;;;38.85;22.83;;;;;;;6.44;100.00;102343.88;5044489;28;20562;-79
2023/12/15 04:31:20;;;;;;;38.13;22.25;;;;;;;6.36;100.00;102346.06;5038244;28;20083;-81
2023/12/15 04:33:46;;;;;;;39.03;21.58;;;;;;;6.44;100.00;102344.69;5037659;28;20132;-81
2023/12/15 04:36:13;;;;;;;36.38;21.92;;;;;;;6.43;100.00;102342.19;5036687;28;20121;-81
2023/12/15 04:38:39;;;;;;;35.88;21.33;;;;;;;6.40;100.00;102342.38;5037255;28;20073;-80
2023/12/15 04:41:17;;;;;;;38.45;22.75;;;;;;;6.39;100.00;102335.47;5051809;28;20131;-80
2023/12/15 04:43:43;;;;;;;45.58;22.83;;;;;;;6.44;100.00;102342.09;5045749;28;20125;-81
2023/12/15 04:46:10;;;;;;;37.95;22.95;;;;;;;6.35;100.00;102334.81;5045166;28;20076;-82
2023/12/15 04:48:37;;;;;;;35.70;20.83;;;;;;;6.41;100.00;102349.25;5046388;28;20084;-81
2023/12/15 04:51:04;;;;;;;42.10;22.67;;;;;;;6.36;100.00;102340.84;5043880;28;20081;-80
2023/12/15 04:53:31;;;;;;;37.50;22.45;;;;;;;6.33;100.00;102352.28;5044044;28;20132;-81
2023/12/15 04:55:57;;;;;;;37.75;22.08;;;;;;;6.26;100.00;102351.78;5032300;28;20148;-82
2023/12/15 04:58:25;;;;;;;36.30;21.23;;;;;;;6.25;100.00;102344.91;5035296;28;20132;-80
2023/12/15 05:00:52;;;;;;;39.40;22.02;;;;;;;6.21;100.00;102335.59;5037221;28;20044;-81
2023/12/15 05:03:18;;;;;;;35.58;20.08;;;;;;;6.36;100.00;102352.09;5043790;28;20068;-80
2023/12/15 05:05:47;;;;;;;35.53;21.08;;;;;;;6.43;100.00;102368.19;5038101;28;20086;-81
2023/12/15 05:08:20;;;;;;;40.58;22.02;;;;;;;6.33;100.00;102358.31;5041881;28;20045;-81
2023/12/15 05:10:47;;;;;;;40.13;20.05;;;;;;;6.30;100.00;102358.47;5029368;28;20069;-81
2023/12/15 05:13:13;;;;;;;39.40;20.42;;;;;;;6.32;100.00;102361.84;5034437;28;20063;-82
2023/12/15 05:15:42;;;;;;;40.80;20.92;;;;;;;6.47;100.00;102372.28;5036445;28;20117;-80
2023/12/15 05:18:08;;;;;;;36.15;20.42;;;;;;;6.49;100.00;102373.06;5034878;28;20549;-81
2023/12/15 05:20:36;;;;;;;37.08;21.25;;;;;;;6.36;100.00;102372.06;5050997;28;20117;-81
2023/12/15 05:23:03;;;;;;;31.23;19.63;;;;;;;6.46;100.00;102368.03;5045042;28;20053;-80
2023/12/15 05:25:29;;;;;;;35.03;20.38;;;;;;;6.44;100.00;102375.06;5036264;28;20064;-80
2023/12/15 05:27:56;;;;;;;34.35;19.98;;;;;;;6.48;100.00;102371.38;5040015;28;20113;-81
2023/12/15 05:30:23;;;;;;;35.15;20.17;;;;;;;6.47;100.00;102374.91;5038252;28;20104;-79
2023/12/15 05:32:50;;;;;;;32.42;20.05;;;;;;;6.48;100.00;102387.81;5039182;28;20076;-80
2023/12/15 05:35:17;;;;;;;34.53;19.77;;;;;;;6.59;100.00;102374.22;5038278;28;20127;-78
2023/12/15 05:37:44;;;;;;;37.03;21.27;;;;;;;6.59;100.00;102379.41;5040628;28;20583;-78
2023/12/15 05:40:12;;;;;;;34.63;18.90;;;;;;;6.65;100.00;102389.44;5051364;28;20042;-78
2023/12/15 05:42:40;;;;;;;37.13;19.80;;;;;;;6.69;100.00;102388.34;5054667;28;20049;-80
2023/12/15 05:45:07;;;;;;;36.75;20.67;;;;;;;6.43;100.00;102389.84;5039337;28;20054;-80
2023/12/15 05:47:34;;;;;;;37.10;19.88;;;;;;;6.33;100.00;102393.88;5037265;28;20508;-81
2023/12/15 05:50:03;;;;;;;38.10;20.40;;;;;;;6.13;100.00;102397.59;5038593;28;20072;-79
2023/12/15 05:52:30;;;;;;;37.17;19.90;;;;;;;5.98;100.00;102398.41;5035408;28;20083;-78
2023/12/15 05:54:57;;;;;;;35.05;20.15;;;;;;;6.02;100.00;102410.31;5039846;28;20050;-80
2023/12/15 05:57:24;;;;;;;37.15;19.60;;;;;;;6.09;100.00;102405.63;5044907;28;20111;-80
2023/12/15 05:59:56;;;;;;;46.00;21.42;;;;;;;6.00;100.00;102419.97;5038070;28;20507;-80
2023/12/15 06:02:26;;;;;;;23.75;14.40;;;;;;;6.10;100.00;102435.91;5039454;28;20041;-81
2023/12/15 06:04:53;;;;;;;34.38;19.58;;;;;;;6.09;100.00;102434.22;5040977;28;20053;-82
2023/12/15 06:07:22;;;;;;;37.83;19.77;;;;;;;6.17;100.00;102437.22;5033017;28;20096;-80
2023/12/15 06:09:48;;;;;;;44.35;21.70;;;;;;;6.12;100.00;102434.91;5033780;28;20057;-79
2023/12/15 06:12:16;;;;;;;30.70;18.67;;;;;;;6.15;100.00;102439.06;5038182;28;20049;-80
2023/12/15 06:14:43;;;;;;;37.63;19.60;;;;;;;6.24;100.00;102436.81;5036429;28;20408;-78
2023/12/15 06:17:10;;;;;;;41.25;22.77;;;;;;;6.41;100.00;102442.84;5041095;28;20164;-80
2023/12/15 06:19:40;;;;;;;40.25;20.35;;;;;;;6.43;100.00;102439.25;5052045;28;20049;-79
2023/12/15 06:22:08;;;;;;;35.42;20.45;;;;;;;6.47;100.00;102443.34;5039669;28;20045;-78
2023/12/15 06:24:36;;;;;;;36.03;19.85;;;;;;;6.53;100.00;102426.56;5051265;28;20053;-79
2023/12/15 06:27:04;;;;;;;38.97;20.77;;;;;;;6.60;100.00;102435.72;5044369;28;20057;-80
2023/12/15 06:29:31;;;;;;;35.47;19.50;;;;;;;6.69;100.00;102435.16;5041172;28;20512;-80
2023/12/15 06:31:58;;;;;;;35.00;19.95;;;;;;;6.78;100.00;102439.00;5039954;28;20113;-79
2023/12/15 06:34:28;;;;;;;41.53;22.30;;;;;;;6.85;100.00;102449.00;5050698;28;20065;-79
2023/12/15 06:36:55;;;;;;;37.88;21.25;;;;;;;6.96;100.00;102456.19;5045291;28;20042;-80
2023/12/15 06:39:24;;;;;;;40.55;23.25;;;;;;;6.97;100.00;102460.47;5043026;28;20046;-80
2023/12/15 06:41:53;;;;;;;41.10;23.58;;;;;;;7.10;100.00;102461.41;5032474;28;20565;-80
2023/12/15 06:44:20;;;;;;;43.10;22.95;;;;;;;7.03;100.00;102459.28;5036753;28;20250;-80
2023/12/15 06:46:47;;;;;;;50.50;28.42;;;;;;;7.09;100.00;102462.34;5035772;28;20049;-80
2023/12/15 06:49:17;;;;;;;42.70;22.60;;;;;;;7.05;100.00;102460.88;5043874;28;20053;-79
2023/12/15 06:51:44;;;;;;;45.47;23.98;;;;;;;7.08;100.00;102472.88;5043096;28;20057;-79
2023/12/15 06:54:12;;;;;;;45.95;22.98;;;;;;;7.12;100.00;102482.16;5041283;28;20103;-81
2023/12/15 06:56:42;;;;;;;48.08;27.73;;;;;;;7.15;100.00;102481.97;5046196;28;20053;-80
2023/12/15 06:59:18;;;;;;;50.10;24.88;;;;;;;7.23;100.00;102495.38;5048302;28;20055;-81
2023/12/15 07:01:45;;;;;;;44.78;24.08;;;;;;;7.13;100.00;102494.22;5036216;28;20045;-79
2023/12/15 07:04:12;;;;;;;48.20;25.30;;;;;;;7.20;100.00;102503.38;5041439;28;20124;-79
2023/12/15 07:06:39;;;;;;;54.55;26.10;;;;;;;7.25;100.00;102494.38;5048580;28;20069;-80
2023/12/15 07:09:07;;;;;;;51.72;25.30;;;;;;;7.25;100.00;102496.13;5048820;28;20061;-81
2023/12/15 07:11:34;;;;;;;50.90;25.83;;;;;;;7.25;100.00;102509.16;5042906;28;20049;-80
2023/12/15 07:14:01;;;;;;;54.28;24.83;;;;;;;7.18;100.00;102510.44;5042325;28;20045;-79
2023/12/15 07:16:29;;;;;;;54.00;25.60;;;;;;;7.26;100.00;102510.84;5040005;28;20067;-80
2023/12/15 07:18:56;;;;;;;60.40;24.98;;;;;;;7.19;100.00;102507.75;5040998;28;20537;-82
2023/12/15 07:21:23;;;;;;;52.92;26.75;;;;;;;7.20;100.00;102521.59;5048869;28;20077;-80
2023/12/15 07:23:49;;;;;;;59.65;27.48;;;;;;;7.28;100.00;102524.59;5054157;28;20072;-79
2023/12/15 07:26:17;;;;;;;57.45;27.85;;;;;;;7.32;100.00;102536.53;5053401;28;20097;-79
2023/12/15 07:28:44;;;;;;;55.85;26.75;;;;;;;7.22;100.00;102527.56;5049474;28;20053;-80
2023/12/15 07:31:10;;;;;;;57.78;27.25;;;;;;;7.29;100.00;102541.91;5053312;28;20053;-80
2023/12/15 07:33:38;;;;;;;56.50;28.08;;;;;;;7.38;100.00;102546.59;5045075;28;20077;-81
2023/12/15 07:36:06;;;;;;;61.00;28.40;;;;;;;7.43;100.00;102538.53;5054064;28;20108;-79
2023/12/15 07:38:32;;;;;;;55.78;26.77;;;;;;;7.50;100.00;102535.47;5049174;28;20136;-78
2023/12/15 07:40:59;;;;;;;64.00;28.05;;;;;;;7.31;100.00;102545.25;5048416;28;20079;-80
2023/12/15 07:43:26;;;;;;;63.30;27.92;;;;;;;7.41;100.00;102550.78;5056006;28;20092;-79
2023/12/15 07:45:52;;;;;;;62.50;29.60;;;;;;;7.39;100.00;102547.44;5055993;28;20091;-80
2023/12/15 07:48:19;;;;;;;64.30;29.00;;;;;;;7.35;100.00;102554.59;5056398;28;20076;-78
2023/12/15 07:50:48;;;;;;;63.67;29.35;;;;;;;7.48;100.00;102565.97;5051125;28;20128;-79
2023/12/15 07:53:14;;;;;;;66.22;28.88;;;;;;;7.39;100.00;102563.06;5056580;28;20056;-78
2023/12/15 07:55:41;;;;;;;68.07;29.13;;;;;;;7.43;100.00;102568.00;5056603;28;20049;-79
2023/12/15 07:58:09;;;;;;;68.00;28.98;;;;;;;7.48;100.00;102560.78;5050914;28;20132;-78
2023/12/15 08:00:36;;;;;;;62.70;28.05;;;;;;;7.52;100.00;102567.47;5051733;28;20095;-78
2023/12/15 08:03:03;;;;;;;60.10;27.77;;;;;;;7.59;100.00;102565.31;5056188;28;20128;-78
2023/12/15 08:05:31;;;;;;;75.72;30.63;;;;;;;7.58;100.00;102567.09;5046159;28;20053;-77
2023/12/15 08:07:59;;;;;;;69.25;31.15;;;;;;;7.55;100.00;102569.06;5048787;28;20553;-78
2023/12/15 08:10:29;;;;;;;67.38;30.00;;;;;;;7.59;100.00;102573.97;5064212;28;20096;-80
2023/12/15 08:12:55;;;;;;;66.32;29.73;;;;;;;7.64;100.00;102578.94;5071583;28;20059;-79
2023/12/15 08:15:22;;;;;;;65.20;29.85;;;;;;;7.61;100.00;102574.72;5075787;28;20033;-80
2023/12/15 08:17:49;;;;;;;61.97;29.00;;;;;;;7.53;100.00;102579.56;5075821;28;20045;-81
2023/12/15 08:20:15;;;;;;;68.45;29.67;;;;;;;7.55;100.00;102585.53;5071822;28;20037;-80
2023/12/15 08:22:42;;;;;;;64.28;28.38;;;;;;;7.55;100.00;102595.97;5075487;28;20060;-80
2023/12/15 08:25:10;;;;;;;64.45;28.25;;;;;;;7.68;100.00;102600.44;5067392;28;20061;-79
2023/12/15 08:27:39;;;;;;;66.65;29.13;;;;;;;7.69;100.00;102602.13;5070419;28;20067;-79
2023/12/15 08:30:08;;;;;;;65.65;28.58;;;;;;;7.62;100.00;102617.25;5066919;28;20049;-79
2023/12/15 08:32:34;;;;;;;56.10;28.33;;;;;;;7.64;100.00;102620.63;5038169;28;20133;-78
2023/12/15 08:35:01;;;;;;;59.00;28.00;;;;;;;7.64;100.00;102628.44;5047570;28;20076;-79
2023/12/15 08:37:28;;;;;;;56.45;28.63;;;;;;;7.72;100.00;102636.66;5041513;28;20517;-79
2023/12/15 08:39:55;;;;;;;60.83;29.48;;;;;;;7.58;100.00;102637.44;5046957;28;20414;-79
2023/12/15 08:42:23;;;;;;;66.93;30.33;;;;;;;7.66;100.00;102640.44;5053590;28;20446;-79
2023/12/15 08:44:49;;;;;;;66.80;30.27;;;;;;;7.74;100.00;102647.81;5053458;28;20080;-78
2023/12/15 08:47:16;;;;;;;70.65;31.48;;;;;;;7.64;100.00;102644.06;5041566;28;20067;-79
2023/12/15 08:49:43;;;;;;;69.10;29.60;;;;;;;7.58;100.00;102647.03;5054853;28;20048;-80
2023/12/15 08:52:09;;;;;;;83.05;35.97;;;;;;;7.59;100.00;102649.53;5055253;28;20099;-79
2023/12/15 08:54:36;;;;;;;69.43;30.45;;;;;;;7.67;100.00;102649.09;5054774;28;20528;-77
2023/12/15 08:57:02;;;;;;;87.93;40.05;;;;;;;7.75;100.00;102652.13;5044036;28;20064;-79
2023/12/15 08:59:30;;;;;;;69.75;29.13;;;;;;;7.85;100.00;102666.31;5044031;28;20052;-77
2023/12/15 09:01:57;;;;;;;65.40;29.27;;;;;;;7.75;100.00;102672.13;5055512;28;20076;-79
2023/12/15 09:04:24;;;;;;;70.40;29.27;;;;;;;7.83;100.00;102678.56;5054215;28;20049;-79
2023/12/15 09:06:50;;;;;;;66.13;28.77;;;;;;;7.91;100.00;102694.63;5045904;28;20099;-79
2023/12/15 09:09:21;;;;;;;69.70;28.42;;;;;;;7.89;100.00;102688.66;5031162;28;20109;-77
2023/12/15 09:11:48;;;;;;;67.53;28.55;;;;;;;7.85;100.00;102700.19;5047401;28;20052;-79
2023/12/15 09:14:15;;;;;;;70.18;29.80;;;;;;;7.91;100.00;102696.38;5046517;28;20054;-78
2023/12/15 09:16:43;;;;;;;60.20;28.98;;;;;;;7.90;100.00;102695.53;5039711;28;20049;-78
2023/12/15 09:19:10;;;;;;;69.32;28.10;;;;;;;7.79;100.00;102702.28;5051810;28;20048;-79
2023/12/15 09:21:37;;;;;;;69.55;27.45;;;;;;;7.83;100.00;102703.81;5057497;28;20052;-79
2023/12/15 09:24:04;;;;;;;67.90;28.77;;;;;;;7.90;100.00;102697.31;5040853;28;20069;-79
2023/12/15 09:26:30;;;;;;;62.72;29.48;;;;;;;8.01;100.00;102707.97;5026443;28;20085;-78
2023/12/15 09:28:57;;;;;;;65.50;28.85;;;;;;;8.00;100.00;102711.50;5056046;28;20071;-79
2023/12/15 09:31:23;;;;;;;71.43;29.63;;;;;;;8.02;100.00;102709.66;5039348;28;20155;-78
2023/12/15 09:33:51;;;;;;;64.68;28.55;;;;;;;8.07;100.00;102717.19;5049246;28;20128;-79
2023/12/15 09:36:18;;;;;;;67.63;29.83;;;;;;;8.07;100.00;102718.00;5055227;28;20084;-79
2023/12/15 09:38:44;;;;;;;66.57;29.25;;;;;;;8.09;100.00;102718.75;5057710;28;20109;-79
2023/12/15 09:41:11;;;;;;;56.95;27.60;;;;;;;8.12;100.00;102723.81;5046563;28;20081;-80
2023/12/15 09:43:38;;;;;;;59.38;28.55;;;;;;;8.14;100.00;102724.56;5090362;22;20113;-80
2023/12/15 09:46:15;;;;;;;71.00;36.72;;;;;;;8.11;100.00;102729.94;5047186;28;20498;-79
2023/12/15 09:49:01;;;;;;;60.88;28.38;;;;;;;8.09;100.00;102726.59;5035047;28;21053;-80
2023/12/15 09:51:49;;;;;;;70.82;29.90;;;;;;;8.11;100.00;102722.13;5025644;28;20042;-79
2023/12/15 09:54:39;;;;;;;68.53;30.35;;;;;;;8.23;100.00;102726.63;5043075;28;20427;-80
2023/12/15 09:57:12;;;;;;;60.83;28.33;;;;;;;8.23;100.00;102734.47;5043658;28;20053;-80
2023/12/15 09:59:41;;;;;;;60.15;28.65;;;;;;;8.15;100.00;102731.44;5031136;28;20056;-80
2023/12/15 10:02:08;;;;;;;60.22;28.30;;;;;;;8.18;100.00;102749.53;5032380;28;20049;-81
2023/12/15 10:04:36;;;;;;;64.30;29.42;;;;;;;8.26;100.00;102744.72;5035344;28;20049;-81
2023/12/15 10:07:03;;;;;;;55.17;28.27;;;;;;;8.37;100.00;102751.09;5036884;28;20132;-80
2023/12/15 10:09:30;;;;;;;58.65;27.58;;;;;;;8.48;100.00;102746.09;5037021;28;20430;-80
2023/12/15 10:11:56;;;;;;;58.47;28.90;;;;;;;8.50;100.00;102746.84;5048495;28;20112;-80
2023/12/15 10:14:23;;;;;;;59.38;28.38;;;;;;;8.51;100.00;102738.91;5050618;28;20048;-79
2023/12/15 10:16:50;;;;;;;58.95;27.23;;;;;;;8.45;100.00;102736.69;5056678;28;20052;-80
2023/12/15 10:19:18;;;;;;;60.90;27.75;;;;;;;8.57;100.00;102753.38;5046192;28;20117;-80
2023/12/15 10:21:48;;;;;;;53.15;26.75;;;;;;;8.62;100.00;102757.38;5030309;28;20054;-80
2023/12/15 10:24:21;;;;;;;54.70;27.55;;;;;;;8.64;100.00;102771.19;5039980;28;20073;-80
2023/12/15 10:26:48;;;;;;;53.00;27.42;;;;;;;8.72;100.00;102772.50;5059378;28;20128;-81
2023/12/15 10:29:15;;;;;;;50.45;25.92;;;;;;;8.66;100.00;102776.31;5036397;28;20042;-80
2023/12/15 10:31:42;;;;;;;54.83;27.20;;;;;;;8.48;100.00;102778.25;5048041;28;20573;-80
2023/12/15 10:34:09;;;;;;;51.47;27.63;;;;;;;8.56;100.00;102775.16;5041065;28;20092;-80
2023/12/15 10:36:40;;;;;;;51.85;28.05;;;;;;;8.61;100.00;102779.19;5034374;28;20132;-80
2023/12/15 10:39:10;;;;;;;56.47;25.67;;;;;;;8.69;100.00;102789.19;5042594;28;20045;-81
2023/12/15 10:41:41;;;;;;;53.75;26.45;;;;;;;8.57;100.00;102790.72;5039530;28;20042;-80
2023/12/15 10:44:08;;;;;;;68.70;31.63;;;;;;;8.61;100.00;102788.78;5039149;28;20121;-79
2023/12/15 10:46:36;;;;;;;58.33;28.17;;;;;;;8.63;100.00;102774.72;5058070;28;20515;-81
2023/12/15 10:49:04;;;;;;;51.30;27.52;;;;;;;8.71;100.00;102789.09;5057677;28;20092;-81
2023/12/15 10:51:31;;;;;;;52.67;26.58;;;;;;;8.62;100.00;102777.41;5059528;28;20045;-80
2023/12/15 10:53:59;;;;;;;56.72;26.15;;;;;;;8.70;100.00;102777.81;5059809;28;20223;-80
2023/12/15 10:56:27;;;;;;;52.42;25.80;;;;;;;8.76;100.00;102779.22;5058404;28;20073;-79
2023/12/15 10:58:54;;;;;;;53.00;25.73;;;;;;;8.67;100.00;102770.16;5032192;28;20092;-78
2023/12/15 11:01:22;;;;;;;55.42;26.33;;;;;;;8.69;100.00;102781.34;5043184;28;20162;-77
2023/12/15 11:03:49;;;;;;;54.13;25.45;;;;;;;8.91;100.00;102788.75;5038913;28;20458;-78
2023/12/15 11:06:26;;;;;;;51.08;26.00;;;;;;;8.94;100.00;102802.44;5057401;28;20507;-80
2023/12/15 11:08:52;;;;;;;53.15;25.98;;;;;;;8.88;100.00;102802.81;5059738;28;20072;-80
2023/12/15 11:11:22;;;;;;;59.35;27.45;;;;;;;8.88;100.00;102804.59;5051328;28;20128;-79
2023/12/15 11:13:57;;;;;;;57.47;27.67;;;;;;;9.02;100.00;102811.56;5040171;28;20050;-80